Time;durP1;ratioP1;P1;durP2;ratioP2;P2;SDS_P1;SDS_P2;PMS_P1;PMS_P2;Temp;Humidity;BMP_temperature;BMP_pressure;BME280_temperature;BME280_humidity;BME280_pressure;Samples;Min_cycle;Max_cycle;Signal;HPM_P1;HPM_P2
2022/11/12 00:01:14;;;;;;;11.40;4.60;;;;;;;10.61;94.74;100998.05;105870;1297;59541;-80
2022/11/12 00:04:21;;;;;;;12.70;5.30;;;;;;;10.60;94.82;100994.91;105884;1290;58733;-79
2022/11/12 00:07:27;;;;;;;11.80;5.00;;;;;;;10.58;95.05;100989.66;105910;1292;71748;-79
2022/11/12 00:10:34;;;;;;;10.50;4.80;;;;;;;10.56;95.10;100997.77;105906;1292;67923;-81
2022/11/12 00:13:43;;;;;;;11.00;5.50;;;;;;;10.52;95.16;100997.84;105875;1294;73748;-79
2022/11/12 00:16:50;;;;;;;10.70;4.80;;;;;;;10.52;95.27;100996.77;105855;1300;60351;-80
2022/11/12 00:19:57;;;;;;;10.00;4.70;;;;;;;10.53;95.27;100996.54;105902;1292;59459;-79
2022/11/12 00:23:03;;;;;;;11.60;5.30;;;;;;;10.53;95.25;101001.89;105881;1292;73108;-79
2022/11/12 00:26:10;;;;;;;12.70;5.10;;;;;;;10.52;95.32;101006.00;105889;1292;67657;-79
2022/11/12 00:29:16;;;;;;;12.40;5.60;;;;;;;10.52;95.01;101009.02;105897;1290;73753;-80
2022/11/12 00:32:26;;;;;;;10.90;5.40;;;;;;;10.52;95.21;101007.61;105805;1295;59598;-78
2022/11/12 00:35:33;;;;;;;14.00;6.50;;;;;;;10.50;95.43;101005.46;105983;1291;60058;-80
2022/11/12 00:38:39;;;;;;;11.80;5.60;;;;;;;10.50;95.43;101006.52;105945;1290;73121;-80
2022/11/12 00:41:46;;;;;;;9.60;5.10;;;;;;;10.50;95.21;101007.75;106007;1292;67798;-82
2022/11/12 00:44:52;;;;;;;10.70;5.40;;;;;;;10.47;95.28;101019.08;105971;1299;73905;-81
2022/11/12 00:47:59;;;;;;;15.80;6.50;;;;;;;10.47;95.32;101016.25;105981;1292;60891;-79
2022/11/12 00:51:06;;;;;;;13.70;6.20;;;;;;;10.48;95.22;101012.33;106002;1292;60478;-80
2022/11/12 00:54:12;;;;;;;13.50;6.40;;;;;;;10.49;94.88;101010.13;105991;1290;72953;-80
2022/11/12 00:57:19;;;;;;;12.30;5.40;;;;;;;10.50;94.81;101002.27;106019;1291;66292;-81
2022/11/12 01:00:26;;;;;;;11.90;5.40;;;;;;;10.48;94.70;101001.63;105953;1291;72434;-80
2022/11/12 01:03:35;;;;;;;13.70;6.20;;;;;;;10.49;94.47;101004.29;105930;1288;58136;-81
2022/11/12 01:06:42;;;;;;;12.60;5.40;;;;;;;10.47;94.04;101006.34;105981;1296;60108;-79
2022/11/12 01:09:51;;;;;;;12.10;5.70;;;;;;;10.46;93.97;101013.14;105983;1290;73983;-80
2022/11/12 01:13:01;;;;;;;15.70;5.60;;;;;;;10.47;93.71;101011.83;105998;1295;66780;-80
2022/11/12 01:16:15;;;;;;;12.60;5.50;;;;;;;10.50;93.92;101020.85;105995;1282;73902;-78
2022/11/12 01:19:25;;;;;;;15.40;6.30;;;;;;;10.50;93.33;101027.09;105959;1291;58023;-79
2022/11/12 01:22:31;;;;;;;12.60;5.90;;;;;;;10.50;93.46;101031.49;105966;1292;60693;-78
2022/11/12 01:25:38;;;;;;;14.70;5.70;;;;;;;10.52;93.11;101036.91;106004;1290;72983;-79
2022/11/12 01:28:45;;;;;;;14.60;5.60;;;;;;;10.50;93.02;101039.48;105988;1292;67591;-78
2022/11/12 01:31:52;;;;;;;13.00;6.10;;;;;;;10.50;92.87;101041.46;105990;1288;72726;-80
2022/11/12 01:35:00;;;;;;;12.60;5.70;;;;;;;10.52;92.86;101047.54;105992;1295;60412;-80
2022/11/12 01:38:09;;;;;;;13.00;5.90;;;;;;;10.52;92.89;101044.48;106002;1287;61602;-79
2022/11/12 01:41:20;;;;;;;11.80;5.90;;;;;;;10.51;92.55;101047.45;105997;1282;72733;-78
2022/11/12 01:44:30;;;;;;;12.30;5.90;;;;;;;10.48;92.79;101043.73;106001;1290;67729;-78
2022/11/12 01:47:39;;;;;;;12.50;6.00;;;;;;;10.46;92.72;101042.94;105992;1291;73815;-80
2022/11/12 01:50:48;;;;;;;16.30;5.90;;;;;;;10.47;93.04;101046.61;105971;1291;60094;-79
2022/11/12 01:53:59;;;;;;;12.70;5.20;;;;;;;10.49;92.83;101051.96;105920;1292;59808;-79
2022/11/12 01:57:09;;;;;;;11.30;5.00;;;;;;;10.49;92.85;101053.57;105999;1291;74322;-79
2022/11/12 02:00:16;;;;;;;12.30;5.10;;;;;;;10.50;93.17;101049.11;105952;1288;66554;-77
2022/11/12 02:03:24;;;;;;;14.00;5.80;;;;;;;10.50;92.95;101044.99;105925;1292;72852;-77
2022/11/12 02:06:34;;;;;;;14.70;5.60;;;;;;;10.48;92.66;101046.52;106013;1291;57273;-79
2022/11/12 02:09:40;;;;;;;12.20;5.40;;;;;;;10.48;92.95;101046.52;105223;1289;1002351;-79
2022/11/12 02:16:15;;;;;;;15.30;6.00;;;;;;;10.45;93.26;101046.90;106008;1292;67839;-82
2022/11/12 02:19:25;;;;;;;12.00;5.70;;;;;;;10.48;93.31;101051.20;106018;1283;72422;-83
2022/11/12 02:22:32;;;;;;;12.20;5.30;;;;;;;10.48;93.33;101051.50;106015;1291;58016;-79
2022/11/12 02:25:38;;;;;;;12.90;5.50;;;;;;;10.49;93.35;101051.85;105974;1284;60073;-79
2022/11/12 02:28:45;;;;;;;12.60;5.30;;;;;;;10.50;93.21;101050.85;106030;1299;71442;-80
2022/11/12 02:31:51;;;;;;;10.80;5.00;;;;;;;10.52;93.25;101053.20;106015;1297;67752;-79
2022/11/12 02:34:58;;;;;;;12.60;5.00;;;;;;;10.51;93.16;101049.70;105972;1290;74006;-78
2022/11/12 02:38:08;;;;;;;12.10;5.20;;;;;;;10.50;93.29;101053.17;105999;1296;59372;-78
2022/11/12 02:41:19;;;;;;;10.10;5.10;;;;;;;10.51;93.52;101059.65;106019;1292;60384;-80
2022/11/12 02:44:25;;;;;;;10.60;4.50;;;;;;;10.53;93.33;101056.19;105845;1290;72962;-79
2022/11/12 02:47:32;;;;;;;13.70;5.40;;;;;;;10.54;93.05;101054.16;105953;1292;66759;-81
2022/11/12 02:50:39;;;;;;;11.50;4.00;;;;;;;10.56;93.33;101052.09;105993;1291;72750;-84
2022/11/12 02:53:45;;;;;;;13.60;4.60;;;;;;;10.57;92.97;101061.08;105954;1285;59273;-82
2022/11/12 02:56:51;;;;;;;11.70;5.00;;;;;;;10.58;93.10;101054.66;105962;1292;59225;-79
2022/11/12 02:59:59;;;;;;;11.90;4.70;;;;;;;10.60;93.06;101054.89;106020;1291;73015;-81
2022/11/12 03:03:08;;;;;;;10.10;4.30;;;;;;;10.61;92.82;101056.98;105848;1292;66544;-79
2022/11/12 03:06:14;;;;;;;14.80;5.10;;;;;;;10.60;92.89;101067.98;105950;1292;72794;-81
2022/11/12 03:09:21;;;;;;;13.70;5.60;;;;;;;10.60;92.66;101067.63;105915;1290;57941;-80
2022/11/12 03:12:31;;;;;;;12.00;4.80;;;;;;;10.61;92.71;101067.23;105922;1292;59182;-79
2022/11/12 03:15:37;;;;;;;13.40;5.50;;;;;;;10.63;92.41;101067.09;105976;1289;72671;-78
2022/11/12 03:18:44;;;;;;;15.40;6.80;;;;;;;10.65;92.50;101068.42;106033;1292;67882;-78
2022/11/12 03:21:54;;;;;;;14.60;6.80;;;;;;;10.66;92.23;101073.48;105969;1290;72784;-79
2022/11/12 03:25:01;;;;;;;14.10;5.50;;;;;;;10.67;92.31;101068.94;106044;1290;57116;-80
2022/11/12 03:28:11;;;;;;;10.60;4.60;;;;;;;10.68;92.41;101072.30;105969;1291;60416;-79
2022/11/12 03:31:17;;;;;;;10.20;4.30;;;;;;;10.68;92.21;101071.41;105964;1290;73082;-79
2022/11/12 03:34:25;;;;;;;10.00;4.80;;;;;;;10.69;92.31;101071.52;105950;1284;66757;-81
2022/11/12 03:37:31;;;;;;;10.20;4.20;;;;;;;10.70;92.53;101071.80;106025;1282;72492;-81
2022/11/12 03:40:37;;;;;;;13.70;5.00;;;;;;;10.71;92.37;101068.58;105950;1284;58128;-80
2022/11/12 03:43:44;;;;;;;14.60;4.70;;;;;;;10.72;92.28;101066.73;106015;1292;61577;-82
2022/11/12 03:46:54;;;;;;;12.50;4.40;;;;;;;10.71;92.21;101067.12;106038;1291;71664;-81
2022/11/12 03:50:01;;;;;;;13.60;4.80;;;;;;;10.71;92.19;101067.33;106026;1284;65772;-80
2022/11/12 03:53:08;;;;;;;11.70;4.40;;;;;;;10.71;92.21;101072.99;105937;1291;72742;-80
2022/11/12 03:56:15;;;;;;;13.90;4.70;;;;;;;10.70;92.19;101068.26;106006;1292;59267;-78
2022/11/12 03:59:21;;;;;;;12.60;4.70;;;;;;;10.71;92.36;101059.85;106006;1290;60361;-78
2022/11/12 04:02:29;;;;;;;13.30;4.70;;;;;;;10.70;92.03;101057.27;105989;1291;71529;-79
2022/11/12 04:09:03;;;;;;;11.40;4.20;;;;;;;10.73;92.31;101056.18;106001;1291;72692;-80
2022/11/12 04:15:37;;;;;;;10.40;4.00;;;;;;;10.76;91.88;101054.23;106015;1291;61572;-80
2022/11/12 04:22:15;;;;;;;10.00;4.00;;;;;;;10.77;91.91;101047.25;106005;1292;67626;-79
2022/11/12 04:32:14;;;;;;;13.00;3.80;;;;;;;10.76;91.41;101048.55;106005;1291;61538;-78
2022/11/12 04:35:23;;;;;;;13.50;4.20;;;;;;;10.75;91.20;101047.39;106007;1288;74252;-79
2022/11/12 04:38:30;;;;;;;12.20;4.10;;;;;;;10.74;91.55;101044.41;105985;1290;69031;-78
2022/11/12 04:45:03;;;;;;;14.10;3.70;;;;;;;10.76;91.50;101038.05;105999;1291;60648;-78
2022/11/12 04:48:10;;;;;;;12.30;4.00;;;;;;;10.76;91.53;101037.73;106024;1292;59042;-77
2022/11/12 04:54:41;;;;;;;11.00;3.60;;;;;;;10.77;91.67;101035.57;105997;1290;67602;-78
2022/11/12 04:57:48;;;;;;;10.20;3.20;;;;;;;10.79;91.81;101044.13;105987;1291;72712;-77
2022/11/12 05:00:58;;;;;;;9.70;4.00;;;;;;;10.79;91.63;101040.34;105988;1284;59051;-77
2022/11/12 05:04:07;;;;;;;10.70;3.50;;;;;;;10.79;91.76;101038.05;105215;1291;1015555;-77
2022/11/12 05:07:15;;;;;;;10.90;3.80;;;;;;;10.78;91.77;101035.63;105985;1292;73257;-77
2022/11/12 05:10:25;;;;;;;10.90;3.80;;;;;;;10.81;91.92;101037.23;105888;1290;68225;-77
2022/11/12 05:13:31;;;;;;;12.80;4.10;;;;;;;10.84;91.86;101035.61;105969;1291;72815;-79
2022/11/12 05:16:38;;;;;;;11.10;4.20;;;;;;;10.86;91.79;101030.52;105990;1290;57309;-77
2022/11/12 05:19:44;;;;;;;13.00;3.90;;;;;;;10.88;91.82;101033.23;106009;1291;60360;-79
2022/11/12 05:22:51;;;;;;;13.00;3.50;;;;;;;10.89;91.85;101036.16;106032;1291;73589;-78
2022/11/12 05:26:12;;;;;;;11.70;4.00;;;;;;;10.89;91.67;101044.14;105996;1287;67565;-77
2022/11/12 05:29:18;;;;;;;13.50;4.10;;;;;;;10.89;91.88;101039.73;106004;1292;72793;-78
2022/11/12 05:32:26;;;;;;;15.00;3.90;;;;;;;10.88;92.01;101050.96;105882;1297;59698;-79
2022/11/12 05:35:33;;;;;;;10.70;4.10;;;;;;;10.88;92.05;101055.39;105980;1284;58516;-78
2022/11/12 05:38:40;;;;;;;9.80;4.00;;;;;;;10.90;92.16;101057.58;106002;1290;74460;-78
2022/11/12 05:41:48;;;;;;;12.20;4.40;;;;;;;10.91;92.12;101053.11;106070;1284;69499;-80
2022/11/12 05:45:19;;;;;;;12.40;4.20;;;;;;;10.90;92.17;101054.20;105814;1299;170213;-78
2022/11/12 05:48:29;;;;;;;12.00;4.10;;;;;;;10.90;92.09;101061.88;105973;1291;58220;-79
2022/11/12 05:51:37;;;;;;;9.70;3.70;;;;;;;10.90;92.15;101068.77;106029;1291;59031;-81
2022/11/12 05:54:43;;;;;;;11.50;4.20;;;;;;;10.91;92.05;101065.72;105992;1291;72877;-78
2022/11/12 05:58:03;;;;;;;11.40;3.90;;;;;;;10.91;91.84;101061.44;105999;1282;67511;-78
2022/11/12 06:01:10;;;;;;;12.20;3.30;;;;;;;10.95;91.52;101064.61;105975;1290;73960;-80
2022/11/12 06:04:17;;;;;;;10.60;3.10;;;;;;;10.97;91.29;101062.11;106006;1291;57139;-79
2022/11/12 06:07:27;;;;;;;11.30;3.20;;;;;;;10.97;90.90;101063.58;106007;1290;59474;-80
2022/11/12 06:10:33;;;;;;;9.50;3.10;;;;;;;10.98;90.87;101066.84;106010;1289;73121;-77
2022/11/12 06:13:41;;;;;;;9.20;2.80;;;;;;;11.01;90.66;101064.92;105977;1297;69215;-79
2022/11/12 06:16:47;;;;;;;10.50;3.10;;;;;;;11.02;90.43;101069.96;106033;1291;70072;-78
2022/11/12 06:19:54;;;;;;;12.20;3.50;;;;;;;11.04;90.27;101073.42;106041;1289;60752;-79
2022/11/12 06:23:03;;;;;;;8.30;2.90;;;;;;;11.07;89.92;101076.27;106062;1288;58684;-79
2022/11/12 06:26:10;;;;;;;7.60;2.70;;;;;;;11.08;90.11;101074.77;106067;1284;73239;-80
2022/11/12 06:29:17;;;;;;;9.10;2.60;;;;;;;11.11;90.00;101073.89;106068;1289;68252;-79
2022/11/12 06:32:24;;;;;;;6.90;2.40;;;;;;;11.13;89.78;101074.11;106057;1289;72423;-80
2022/11/12 06:35:34;;;;;;;9.10;2.60;;;;;;;11.16;89.20;101080.64;106083;1288;59602;-79
2022/11/12 06:38:48;;;;;;;8.40;2.50;;;;;;;11.17;89.06;101077.91;106092;1288;60543;-80
2022/11/12 06:41:54;;;;;;;10.70;2.60;;;;;;;11.21;88.97;101087.98;106079;1287;72890;-82
2022/11/12 06:45:01;;;;;;;8.10;2.40;;;;;;;11.26;89.17;101092.61;106091;1292;68859;-79
2022/11/12 06:48:07;;;;;;;8.10;3.10;;;;;;;11.30;88.70;101090.39;106076;1281;72756;-80
2022/11/12 06:51:21;;;;;;;8.60;2.40;;;;;;;11.33;88.62;101090.20;106072;1297;59588;-78
2022/11/12 06:54:30;;;;;;;9.40;2.80;;;;;;;11.37;88.34;101086.73;105962;1284;60186;-78
2022/11/12 06:57:36;;;;;;;10.10;3.30;;;;;;;11.43;88.12;101093.86;106032;1290;72998;-77
2022/11/12 07:00:45;;;;;;;9.40;2.40;;;;;;;11.46;88.00;101101.13;106099;1288;66517;-79
2022/11/12 07:03:53;;;;;;;10.00;3.20;;;;;;;11.51;87.71;101104.35;106114;1289;73695;-80
2022/11/12 07:07:00;;;;;;;9.60;2.70;;;;;;;11.54;87.50;101109.27;106058;1292;57876;-82
2022/11/12 07:10:08;;;;;;;7.40;2.20;;;;;;;11.57;87.01;101113.92;106274;1274;59943;-81
2022/11/12 07:13:15;;;;;;;9.40;2.30;;;;;;;11.60;87.17;101117.46;106166;1289;71745;-75
2022/11/12 07:16:22;;;;;;;11.60;2.60;;;;;;;11.63;86.78;101122.06;106025;1289;69420;-76
2022/11/12 07:19:29;;;;;;;8.50;2.40;;;;;;;11.67;87.00;101132.28;106044;1289;72445;-73
2022/11/12 07:22:36;;;;;;;8.60;2.70;;;;;;;11.71;86.94;101145.91;106057;1288;58023;-73
2022/11/12 07:25:43;;;;;;;10.80;3.00;;;;;;;11.75;87.16;101137.95;106082;1282;58740;-74
2022/11/12 07:28:51;;;;;;;9.80;2.50;;;;;;;11.82;86.82;101144.29;105893;1290;72857;-73
2022/11/12 07:31:58;;;;;;;8.60;2.40;;;;;;;11.85;86.50;101159.57;105911;1288;67602;-74
2022/11/12 07:35:05;;;;;;;8.80;2.60;;;;;;;11.88;86.38;101143.02;105968;1284;72791;-73
2022/11/12 07:38:14;;;;;;;7.50;2.10;;;;;;;11.90;86.18;101162.23;105947;1292;58141;-73
2022/11/12 07:41:25;;;;;;;6.70;2.40;;;;;;;11.90;85.84;101146.95;105965;1290;60389;-73
2022/11/12 07:44:32;;;;;;;11.00;2.60;;;;;;;11.92;86.12;101165.31;106007;1284;71701;-73
2022/11/12 07:47:39;;;;;;;8.10;2.40;;;;;;;11.95;86.18;101158.17;105988;1291;69170;-73
2022/11/12 07:50:46;;;;;;;8.20;2.30;;;;;;;12.00;86.04;101160.92;105981;1299;73516;-72
2022/11/12 07:53:56;;;;;;;7.80;2.30;;;;;;;12.06;85.98;101159.10;105772;1292;58794;-73
2022/11/12 07:57:04;;;;;;;7.70;2.30;;;;;;;12.13;85.72;101170.91;105965;1290;58321;-72
2022/11/12 08:00:12;;;;;;;8.00;2.70;;;;;;;12.16;85.55;101171.61;105975;1284;74138;-72
2022/11/12 08:03:19;;;;;;;9.00;2.70;;;;;;;12.18;85.23;101170.73;105996;1284;67684;-72
2022/11/12 08:06:29;;;;;;;9.00;2.70;;;;;;;12.19;85.00;101169.24;105895;1291;72323;-73
2022/11/12 08:09:35;;;;;;;8.60;2.60;;;;;;;12.23;85.14;101180.72;105970;1284;57968;-73
2022/11/12 08:12:42;;;;;;;7.80;2.20;;;;;;;12.27;85.27;101182.79;105946;1290;60543;-74
2022/11/12 08:15:56;;;;;;;10.00;3.00;;;;;;;12.32;84.87;101178.20;105957;1284;73098;-73
2022/11/12 08:19:03;;;;;;;7.80;2.60;;;;;;;12.36;84.80;101192.30;105971;1290;68018;-72
2022/11/12 08:22:10;;;;;;;9.40;2.80;;;;;;;12.36;84.76;101199.61;105981;1290;72694;-75
2022/11/12 08:25:17;;;;;;;9.60;2.80;;;;;;;12.36;84.82;101198.20;105778;1291;58233;-74
2022/11/12 08:28:24;;;;;;;11.90;2.90;;;;;;;12.34;84.69;101197.79;105983;1292;60370;-73
2022/11/12 08:31:31;;;;;;;10.80;2.80;;;;;;;12.34;84.53;101189.64;105929;1284;72874;-73
2022/11/12 08:34:40;;;;;;;9.50;3.10;;;;;;;12.35;84.73;101189.89;105988;1290;67613;-73
2022/11/12 08:37:46;;;;;;;9.70;3.20;;;;;;;12.40;84.76;101186.18;105298;1291;1002462;-72
2022/11/12 08:40:53;;;;;;;11.40;3.10;;;;;;;12.50;84.49;101176.61;106004;1291;59200;-75
2022/11/12 08:44:04;;;;;;;10.00;3.00;;;;;;;12.65;84.03;101179.30;106074;1288;59402;-74
2022/11/12 08:47:14;;;;;;;9.30;2.90;;;;;;;12.74;83.63;101173.73;106069;1284;73181;-71
2022/11/12 08:50:21;;;;;;;9.90;3.40;;;;;;;12.80;83.33;101171.55;106087;1289;66837;-72
2022/11/12 08:53:39;;;;;;;12.40;3.70;;;;;;;12.84;83.11;101171.80;105888;1286;72382;-75
2022/11/12 08:56:55;;;;;;;8.30;3.20;;;;;;;12.88;82.97;101183.09;105977;1291;59528;-73
2022/11/12 09:00:05;;;;;;;12.40;3.70;;;;;;;12.88;82.97;101186.32;105822;1287;60439;-74
2022/11/12 09:03:17;;;;;;;9.20;2.80;;;;;;;12.91;82.91;101194.80;106046;1282;72954;-72
2022/11/12 09:06:24;;;;;;;9.60;2.90;;;;;;;12.87;82.89;101198.60;106063;1288;68709;-73
2022/11/12 09:09:38;;;;;;;9.40;2.70;;;;;;;12.83;82.80;101193.92;106039;1281;72717;-73
2022/11/12 09:12:51;;;;;;;12.90;3.90;;;;;;;12.80;83.26;101203.04;106061;1284;57386;-73
2022/11/12 09:16:05;;;;;;;11.80;3.30;;;;;;;12.80;83.42;101204.52;105971;1292;60091;-74
2022/11/12 09:19:11;;;;;;;11.40;3.30;;;;;;;12.80;83.64;101196.46;105877;1289;73130;-73
2022/11/12 09:22:17;;;;;;;9.90;3.40;;;;;;;12.76;83.74;101198.34;106047;1289;66375;-75
2022/11/12 09:25:24;;;;;;;13.60;3.50;;;;;;;12.75;84.00;101201.27;106039;1284;74166;-74
2022/11/12 09:28:32;;;;;;;10.90;3.20;;;;;;;12.70;84.24;101204.23;106012;1297;59289;-74
2022/11/12 09:31:40;;;;;;;9.60;3.10;;;;;;;12.68;84.46;101207.64;106033;1284;60455;-73
2022/11/12 09:34:47;;;;;;;11.20;3.00;;;;;;;12.69;84.69;101196.52;105893;1285;74306;-74
2022/11/12 09:37:53;;;;;;;12.10;3.60;;;;;;;12.71;84.81;101196.02;106040;1292;67873;-74
2022/11/12 09:41:27;;;;;;;9.40;3.30;;;;;;;12.73;85.02;101197.31;106066;1284;72739;-74
2022/11/12 09:44:39;;;;;;;11.30;3.50;;;;;;;12.77;84.84;101200.55;105994;1292;59756;-73
2022/11/12 09:47:56;;;;;;;11.70;6.50;;;;;;;12.79;84.89;101199.55;106022;1292;60423;-74
2022/11/12 09:51:27;;;;;;;11.40;4.10;;;;;;;12.84;84.86;101205.65;106014;1284;72917;-79
2022/11/12 09:54:37;;;;;;;13.70;3.60;;;;;;;12.82;84.93;101211.66;105866;1292;67920;-79
2022/11/12 09:57:44;;;;;;;10.50;3.40;;;;;;;12.78;85.23;101217.60;106033;1289;71466;-79
2022/11/12 10:01:00;;;;;;;15.30;4.10;;;;;;;12.78;85.44;101221.53;106057;1281;58631;-79
2022/11/12 10:04:32;;;;;;;10.40;3.70;;;;;;;12.73;85.93;101223.62;105952;1291;58733;-81
2022/11/12 10:08:06;;;;;;;11.20;3.40;;;;;;;12.71;86.26;101228.27;106062;1289;71573;-80
2022/11/12 10:20:19;;;;;;;10.90;3.80;;;;;;;12.64;87.37;101228.92;105799;1284;59505;-81
2022/11/12 10:23:47;;;;;;;11.50;4.30;;;;;;;12.63;87.50;101228.45;106150;1289;58622;-82
2022/11/12 10:26:56;;;;;;;12.40;4.00;;;;;;;12.58;87.76;101226.98;106034;1290;73436;-80
2022/11/12 10:30:13;;;;;;;12.70;3.80;;;;;;;12.57;88.07;101233.83;105970;1285;67610;-80
2022/11/12 10:33:35;;;;;;;11.30;3.90;;;;;;;12.54;88.33;101234.36;106045;1289;73969;-80
2022/11/12 10:36:52;;;;;;;11.20;4.00;;;;;;;12.54;88.52;101238.60;105754;1291;60132;-80
2022/11/12 10:40:46;;;;;;;13.40;4.00;;;;;;;12.58;88.64;101237.67;105917;1292;58687;-81
2022/11/12 10:44:05;;;;;;;11.60;3.60;;;;;;;12.63;88.73;101235.72;105968;1284;71986;-81
2022/11/12 10:47:41;;;;;;;11.50;3.90;;;;;;;12.65;88.76;101237.94;105931;1283;66484;-80
2022/11/12 10:50:49;;;;;;;11.70;3.90;;;;;;;12.62;89.12;101245.42;105971;1285;71206;-81
2022/11/12 10:53:55;;;;;;;12.60;3.90;;;;;;;12.61;89.36;101245.79;105757;1284;58876;-80
2022/11/12 10:57:24;;;;;;;12.80;3.70;;;;;;;12.60;89.53;101241.25;105947;1292;60465;-80
2022/11/12 11:00:31;;;;;;;10.40;3.30;;;;;;;12.60;89.65;101239.45;105929;1284;71817;-81
2022/11/12 11:03:50;;;;;;;11.90;3.70;;;;;;;12.59;89.81;101241.84;105874;1290;66198;-79
2022/11/12 11:07:17;;;;;;;14.10;5.10;;;;;;;12.57;90.07;101240.75;105842;1280;73903;-79
2022/11/12 11:10:29;;;;;;;10.20;3.80;;;;;;;12.49;90.99;101236.48;105926;1288;59752;-78
2022/11/12 11:13:35;;;;;;;12.70;4.00;;;;;;;12.41;91.64;101235.02;105897;1292;60362;-80
2022/11/12 11:17:00;;;;;;;10.20;3.70;;;;;;;12.42;91.68;101236.21;105915;1291;73091;-79
2022/11/12 11:20:24;;;;;;;12.00;3.70;;;;;;;12.43;91.96;101229.41;105897;1284;67611;-81
2022/11/12 11:23:50;;;;;;;11.80;3.40;;;;;;;12.42;92.20;101226.05;105774;1291;73855;-79
2022/11/12 11:27:11;;;;;;;10.50;3.70;;;;;;;12.41;92.36;101215.46;105870;1283;57772;-79
2022/11/12 11:30:20;;;;;;;12.20;4.10;;;;;;;12.42;92.61;101210.24;105905;1291;57680;-79
2022/11/12 11:33:42;;;;;;;11.90;4.00;;;;;;;12.46;92.91;101213.75;105899;1283;73348;-79
2022/11/12 11:37:15;;;;;;;12.40;4.30;;;;;;;12.44;92.92;101214.87;106054;1289;68752;-80
2022/11/12 11:40:36;;;;;;;9.70;4.00;;;;;;;12.48;92.70;101206.11;106054;1287;72694;-79
2022/11/12 11:44:41;;;;;;;11.10;4.30;;;;;;;12.49;93.16;101207.45;105869;1285;58020;-77
2022/11/12 11:48:17;;;;;;;12.60;4.10;;;;;;;12.52;93.12;101210.30;105475;1297;61684;-80
2022/11/12 11:51:47;;;;;;;11.40;3.90;;;;;;;12.54;93.18;101204.25;105435;1299;72088;-78
2022/11/12 11:55:59;;;;;;;10.70;3.80;;;;;;;12.54;93.02;101211.05;105496;1290;69090;-80
2022/11/12 11:59:36;;;;;;;12.10;4.20;;;;;;;12.56;93.31;101214.48;105346;1290;72914;-78
2022/11/12 12:03:10;;;;;;;12.80;4.80;;;;;;;12.58;93.20;101222.71;105478;1297;57300;-78
2022/11/12 12:06:31;;;;;;;10.80;4.00;;;;;;;12.56;93.24;101232.95;105405;1297;60513;-79
2022/11/12 12:10:15;;;;;;;17.30;4.90;;;;;;;12.56;93.34;101234.09;105379;1296;71881;-79
2022/11/12 12:13:40;;;;;;;12.70;4.50;;;;;;;12.55;93.53;101231.79;105462;1297;66622;-78
2022/11/12 12:17:31;;;;;;;10.10;3.90;;;;;;;12.51;93.82;101224.06;105370;1290;72831;-78
2022/11/12 12:20:47;;;;;;;14.30;4.50;;;;;;;12.53;94.12;101231.91;104703;1306;58358;-78
2022/11/12 12:24:11;;;;;;;14.00;4.10;;;;;;;12.56;94.02;101234.75;105012;1297;60758;-78
2022/11/12 12:27:25;;;;;;;12.60;4.20;;;;;;;12.57;94.03;101225.45;105525;1295;72826;-77
2022/11/12 12:30:39;;;;;;;13.70;4.50;;;;;;;12.57;94.46;101228.65;105531;1297;66360;-79
2022/11/12 12:33:57;;;;;;;14.50;4.30;;;;;;;12.57;94.31;101237.55;105496;1297;73804;-78
2022/11/12 12:37:34;;;;;;;9.70;4.10;;;;;;;12.54;94.69;101248.95;105502;1290;59443;-78
2022/11/12 12:40:50;;;;;;;10.00;3.70;;;;;;;12.53;94.85;101244.56;105526;1304;60471;-80
2022/11/12 12:44:09;;;;;;;9.20;3.60;;;;;;;12.56;94.95;101248.48;105538;1296;71889;-80
2022/11/12 12:47:18;;;;;;;13.90;3.90;;;;;;;12.54;95.12;101247.88;105520;1298;66558;-79
2022/11/12 12:50:25;;;;;;;11.60;3.60;;;;;;;12.53;95.33;101243.31;105430;1290;72873;-79
2022/11/12 12:53:35;;;;;;;11.40;3.50;;;;;;;12.53;95.37;101253.86;105531;1297;57956;-80
2022/11/12 12:56:44;;;;;;;10.40;3.40;;;;;;;12.54;95.46;101256.23;105558;1292;59284;-79
2022/11/12 13:00:33;;;;;;;9.00;2.90;;;;;;;12.57;95.51;101252.52;105976;1290;73107;-78
2022/11/12 13:03:42;;;;;;;9.40;3.60;;;;;;;12.57;95.62;101252.84;106031;1292;69287;-78
2022/11/12 13:06:49;;;;;;;13.30;4.80;;;;;;;12.58;95.47;101260.45;106020;1284;73635;-80
2022/11/12 13:10:50;;;;;;;10.70;4.20;;;;;;;12.55;95.84;101264.40;105964;1291;60392;-79
2022/11/12 13:14:42;;;;;;;11.30;4.40;;;;;;;12.54;96.18;101264.81;106066;1289;60809;-79
2022/11/12 13:17:50;;;;;;;10.50;4.40;;;;;;;12.53;96.17;101261.66;106042;1296;71364;-81
2022/11/12 13:21:12;;;;;;;11.80;3.90;;;;;;;12.50;96.70;101250.09;106030;1290;66254;-81
2022/11/12 13:24:59;;;;;;;13.30;4.50;;;;;;;12.51;96.78;101260.22;105988;1291;71257;-81
2022/11/12 13:28:10;;;;;;;13.70;4.00;;;;;;;12.47;97.04;101250.99;106075;1287;59413;-81
2022/11/12 13:31:28;;;;;;;16.20;4.10;;;;;;;12.49;96.97;101257.83;106003;1292;60170;-80
2022/11/12 13:34:35;;;;;;;10.60;3.70;;;;;;;12.49;97.26;101251.27;106067;1285;72999;-80
2022/11/12 13:38:08;;;;;;;11.90;4.00;;;;;;;12.48;97.11;101243.65;106021;1292;66587;-81
2022/11/12 13:42:46;;;;;;;12.70;4.20;;;;;;;12.48;97.52;101247.45;106024;1292;71791;-81
2022/11/12 13:44:47;;;;;;;10.00;4.10;;;;;;;12.44;97.80;101239.83;106026;1288;60712;-80
2022/11/12 13:48:07;;;;;;;12.20;4.10;;;;;;;12.39;98.17;101241.09;106034;1290;57661;-81
2022/11/12 13:51:22;;;;;;;10.70;4.10;;;;;;;12.34;98.46;101243.35;105962;1292;74240;-81
2022/11/12 13:54:38;;;;;;;10.20;3.80;;;;;;;12.33;98.87;101236.50;106048;1288;69457;-81
2022/11/12 13:57:49;;;;;;;11.90;4.20;;;;;;;12.29;99.32;101236.94;106068;1274;72271;-81
2022/11/12 14:01:05;;;;;;;10.50;4.10;;;;;;;12.23;99.71;101240.89;105949;1291;59654;-81
2022/11/12 14:04:15;;;;;;;12.50;4.80;;;;;;;12.20;99.91;101238.05;106047;1287;60086;-81
2022/11/12 14:07:55;;;;;;;8.90;3.70;;;;;;;12.18;100.00;101241.75;106017;1290;72327;-81
2022/11/12 14:11:36;;;;;;;11.40;4.30;;;;;;;12.14;100.00;101238.23;106095;1292;65460;-81
2022/11/12 14:15:30;;;;;;;16.00;4.60;;;;;;;12.10;100.00;101236.77;105962;1287;73527;-79
2022/11/12 14:18:57;;;;;;;12.30;4.50;;;;;;;12.07;100.00;101244.93;105930;1297;60424;-81
2022/11/12 14:22:18;;;;;;;11.80;4.10;;;;;;;12.06;100.00;101246.61;105923;1289;61226;-80
2022/11/12 14:25:27;;;;;;;9.80;4.60;;;;;;;12.02;100.00;101240.13;105944;1282;71942;-80
2022/11/12 14:28:36;;;;;;;10.40;4.40;;;;;;;11.97;100.00;101238.99;105987;1292;66302;-81
2022/11/12 14:31:42;;;;;;;10.80;3.90;;;;;;;11.93;100.00;101246.52;105935;1290;70992;-82
2022/11/12 14:34:49;;;;;;;10.80;4.20;;;;;;;11.89;100.00;101249.09;105975;1291;60103;-80
2022/11/12 14:38:28;;;;;;;9.60;4.40;;;;;;;11.87;100.00;101249.37;105965;1291;60132;-80
2022/11/12 14:41:41;;;;;;;11.10;4.40;;;;;;;11.87;100.00;101255.81;105933;1291;74060;-80
2022/11/12 14:44:48;;;;;;;11.40;4.30;;;;;;;11.86;100.00;101265.43;105907;1291;66195;-81
2022/11/12 14:47:54;;;;;;;12.90;4.50;;;;;;;11.88;100.00;101266.06;105871;1291;70142;-80
2022/11/12 14:51:09;;;;;;;11.90;4.60;;;;;;;11.89;100.00;101257.64;105921;1291;59639;-79
2022/11/12 14:54:32;;;;;;;15.80;5.30;;;;;;;11.88;100.00;101258.05;105954;1282;59123;-81
2022/11/12 14:57:39;;;;;;;11.30;4.80;;;;;;;11.86;100.00;101255.29;105923;1292;74409;-82
2022/11/12 15:00:49;;;;;;;12.40;4.50;;;;;;;11.86;100.00;101277.75;105974;1290;67835;-82
2022/11/12 15:04:12;;;;;;;14.40;5.00;;;;;;;11.88;100.00;101287.39;105965;1276;72429;-81
2022/11/12 15:07:28;;;;;;;14.20;5.20;;;;;;;11.89;100.00;101278.08;105993;1284;58260;-80
2022/11/12 15:10:42;;;;;;;21.80;5.80;;;;;;;11.88;100.00;101279.02;106013;1284;58698;-82
2022/11/12 15:13:50;;;;;;;13.90;4.70;;;;;;;11.87;100.00;101276.04;105987;1292;74287;-80